createdAt,value
2019-02-20T00:00:49.716Z,3.62
2019-02-20T00:03:16.558Z,3.92
2019-02-20T00:05:43.710Z,3.30
2019-02-20T00:08:11.150Z,3.47
2019-02-20T00:10:38.011Z,3.17
2019-02-20T00:13:04.907Z,3.25
2019-02-20T00:15:31.695Z,3.02
2019-02-20T00:17:58.847Z,2.87
2019-02-20T00:20:25.690Z,3.02
2019-02-20T00:22:52.840Z,3.70
2019-02-20T00:25:19.996Z,2.90
2019-02-20T00:27:49.604Z,3.55
2019-02-20T00:30:16.751Z,3.52
2019-02-20T00:32:43.641Z,3.77
2019-02-20T00:35:10.437Z,3.10
2019-02-20T00:37:37.587Z,4.37
2019-02-20T00:40:08.118Z,3.35
2019-02-20T00:42:34.963Z,2.98
2019-02-20T00:45:03.958Z,3.00
2019-02-20T00:47:32.648Z,2.65
2019-02-20T00:49:59.487Z,2.87
2019-02-20T00:52:28.171Z,3.30
2019-02-20T00:54:55.331Z,2.62
2019-02-20T00:57:22.171Z,3.37
2019-02-20T00:59:49.314Z,3.40
2019-02-20T01:02:16.158Z,3.33
2019-02-20T01:04:43.309Z,3.70
2019-02-20T01:07:10.158Z,3.45
2019-02-20T01:09:36.995Z,2.87
2019-02-20T01:12:04.764Z,3.10
2019-02-20T01:14:31.607Z,2.80
2019-02-20T01:16:58.447Z,3.17
2019-02-20T01:19:25.599Z,3.58
2019-02-20T01:21:52.453Z,3.60
2019-02-20T01:24:19.594Z,4.45
2019-02-20T01:26:46.438Z,3.15
2019-02-20T01:29:13.283Z,3.05
2019-02-20T01:31:40.169Z,3.80
2019-02-20T01:34:07.282Z,3.45
2019-02-20T01:36:34.115Z,3.52
2019-02-20T01:39:01.005Z,3.42
2019-02-20T01:41:27.854Z,2.60
2019-02-20T01:43:54.693Z,2.93
2019-02-20T01:46:21.537Z,2.62
2019-02-20T01:48:48.350Z,3.08
2019-02-20T01:51:15.222Z,2.60
2019-02-20T01:53:42.021Z,3.05
2019-02-20T01:56:08.864Z,2.55
2019-02-20T01:58:35.756Z,2.67
2019-02-20T02:01:02.893Z,2.35
2019-02-20T02:03:30.014Z,3.33
2019-02-20T02:05:56.852Z,3.10
2019-02-20T02:08:24.001Z,2.40
2019-02-20T02:10:51.153Z,3.45
2019-02-20T02:13:18.303Z,3.12
2019-02-20T02:15:45.458Z,2.45
2019-02-20T02:18:12.607Z,3.60
2019-02-20T02:20:39.753Z,2.70
2019-02-20T02:23:06.905Z,2.77
2019-02-20T02:25:34.054Z,2.60
2019-02-20T02:28:01.308Z,2.27
2019-02-20T02:30:28.664Z,2.70
2019-02-20T02:32:57.266Z,2.77
2019-02-20T02:35:24.807Z,2.67
2019-02-20T02:37:51.960Z,2.20
2019-02-20T02:40:19.108Z,2.02
2019-02-20T02:42:46.261Z,2.80
2019-02-20T02:45:13.410Z,2.27
2019-02-20T02:47:40.564Z,2.37
2019-02-20T02:50:07.714Z,2.35
2019-02-20T02:52:34.863Z,2.10
2019-02-20T02:55:02.015Z,2.47
2019-02-20T02:57:29.165Z,2.25
2019-02-20T02:59:56.314Z,2.20
2019-02-20T03:02:25.307Z,2.20
2019-02-20T03:04:52.472Z,2.77
2019-02-20T03:07:19.609Z,2.80
2019-02-20T03:09:46.766Z,2.65
2019-02-20T03:12:13.913Z,2.58
2019-02-20T03:14:41.078Z,2.85
2019-02-20T03:17:08.213Z,2.90
2019-02-20T03:19:35.361Z,2.60
2019-02-20T03:22:02.512Z,2.60
2019-02-20T03:24:29.668Z,2.70
2019-02-20T03:26:56.818Z,3.10
2019-02-20T03:29:23.965Z,2.77
2019-02-20T03:31:51.120Z,2.60
2019-02-20T03:34:18.279Z,2.30
2019-02-20T03:36:45.415Z,2.50
2019-02-20T03:39:12.566Z,2.70
2019-02-20T03:41:39.723Z,1.90
2019-02-20T03:44:06.867Z,2.60
2019-02-20T03:46:34.018Z,2.62
2019-02-20T03:49:01.168Z,2.40
2019-02-20T03:51:28.320Z,3.45
2019-02-20T03:53:55.470Z,2.70
2019-02-20T03:56:22.630Z,2.70
2019-02-20T03:58:49.772Z,2.95
2019-02-20T04:01:16.927Z,2.30
2019-02-20T04:03:45.917Z,2.17
2019-02-20T04:06:13.066Z,2.47
2019-02-20T04:08:40.216Z,2.70
2019-02-20T04:11:07.366Z,2.90
2019-02-20T04:13:34.539Z,2.65
2019-02-20T04:16:01.671Z,2.77
2019-02-20T04:18:28.819Z,3.10
2019-02-20T04:20:55.969Z,3.08
2019-02-20T04:23:23.123Z,3.22
2019-02-20T04:25:50.270Z,3.37
2019-02-20T04:28:17.421Z,3.40
2019-02-20T04:30:44.573Z,3.47
2019-02-20T04:33:13.340Z,3.95
2019-02-20T04:35:42.138Z,3.80
2019-02-20T04:38:10.358Z,3.52
2019-02-20T04:40:40.479Z,3.67
2019-02-20T04:43:16.661Z,3.75
2019-02-20T04:45:44.491Z,3.50
2019-02-20T04:48:12.314Z,3.80
2019-02-20T04:50:40.834Z,3.27
2019-02-20T04:53:08.309Z,3.90
2019-02-20T04:55:39.446Z,3.95
2019-02-20T04:58:16.167Z,3.60
2019-02-20T05:00:46.757Z,3.30
2019-02-20T05:03:14.701Z,4.00
2019-02-20T05:05:42.251Z,3.75
2019-02-20T05:08:09.617Z,3.80
2019-02-20T05:10:36.767Z,4.87
2019-02-20T05:13:04.531Z,5.37
2019-02-20T05:15:31.682Z,4.35
2019-02-20T05:17:58.834Z,4.37
2019-02-20T05:20:26.316Z,4.28
2019-02-20T09:29:14.550Z,3.00
2019-02-20T10:11:10.897Z,3.20
2019-02-20T10:28:21.213Z,3.05
2019-02-20T10:30:48.364Z,2.70
2019-02-20T10:33:15.513Z,2.40
2019-02-20T10:43:03.817Z,2.90
2019-02-20T10:57:45.790Z,3.00
2019-02-20T11:00:23.629Z,3.25
2019-02-20T11:02:44.133Z,3.40
2019-02-20T11:22:20.630Z,2.40
2019-02-20T11:27:14.976Z,2.90
2019-02-20T11:29:42.264Z,2.20
2019-02-20T11:32:09.632Z,1.60
2019-02-20T11:37:03.912Z,2.80
2019-02-20T11:39:37.558Z,2.20
2019-02-20T11:42:00.648Z,2.20
2019-02-20T11:44:27.795Z,2.75
2019-02-20T11:46:54.947Z,3.60
2019-02-20T11:51:48.984Z,3.05
2019-02-20T11:54:16.091Z,3.30
2019-02-20T11:59:10.391Z,2.30
2019-02-20T12:06:31.228Z,2.60
2019-02-20T12:08:58.378Z,2.60
2019-02-20T12:16:19.217Z,3.10
2019-02-20T12:21:13.516Z,3.00
2019-02-20T12:23:40.670Z,3.00
2019-02-20T12:31:01.505Z,2.40
2019-02-20T12:35:55.504Z,2.80
2019-02-20T12:38:22.649Z,2.80
2019-02-20T12:40:50.864Z,3.20
2019-02-20T12:43:18.487Z,3.50
2019-02-20T12:45:45.638Z,3.70
2019-02-20T12:48:12.788Z,2.30
2019-02-20T12:50:39.939Z,2.70
2019-02-20T12:53:07.033Z,3.30
2019-02-20T12:55:34.242Z,3.40
2019-02-20T12:58:01.390Z,2.50
2019-02-20T13:00:28.543Z,3.00
2019-02-20T13:02:55.691Z,5.30
2019-02-20T13:05:22.793Z,3.20
2019-02-20T13:07:50.301Z,4.85
2019-02-20T13:10:17.427Z,4.80
2019-02-20T13:12:44.602Z,5.40
2019-02-20T13:15:11.755Z,6.00
2019-02-20T13:17:38.903Z,6.30
2019-02-20T13:20:07.284Z,5.00
2019-02-20T13:22:34.431Z,7.85
2019-02-20T13:25:01.583Z,7.00
2019-02-20T13:27:28.733Z,6.60
2019-02-20T13:29:55.991Z,7.00
2019-02-20T13:32:23.341Z,6.70
2019-02-20T13:34:50.493Z,8.80
2019-02-20T13:37:17.653Z,8.05
2019-02-20T13:39:44.793Z,8.80
2019-02-20T13:42:12.046Z,7.60
2019-02-20T13:44:39.145Z,9.45
2019-02-20T13:47:06.244Z,7.25
2019-02-20T13:49:33.396Z,9.30
2019-02-20T13:52:00.489Z,6.15
2019-02-20T13:54:27.696Z,10.10
2019-02-20T13:57:01.680Z,8.00
2019-02-20T13:59:23.840Z,9.15
2019-02-20T14:01:51.606Z,8.10
2019-02-20T14:04:18.759Z,7.40
2019-02-20T14:06:45.907Z,9.00
2019-02-20T14:09:13.060Z,10.75
2019-02-20T14:14:08.906Z,7.80
2019-02-20T14:16:36.093Z,9.65
2019-02-20T14:19:03.195Z,9.30
2019-02-20T14:21:30.964Z,7.95
2019-02-20T14:23:58.116Z,8.40
2019-02-20T14:26:25.262Z,8.55
2019-02-20T14:28:52.426Z,8.40
2019-02-20T14:31:19.566Z,9.80
2019-02-20T14:33:48.253Z,12.10
2019-02-20T14:36:15.401Z,11.10
2019-02-20T14:38:42.857Z,9.30
2019-02-20T14:41:10.009Z,8.10
2019-02-20T14:43:37.159Z,9.70
2019-02-20T14:46:04.314Z,10.65
2019-02-20T14:48:31.481Z,9.00
2019-02-20T14:50:58.610Z,6.85
2019-02-20T14:53:25.761Z,7.95
2019-02-20T14:55:52.915Z,8.70
2019-02-20T14:58:20.678Z,10.50
2019-02-20T15:00:47.832Z,10.70
2019-02-20T15:05:41.828Z,10.20
2019-02-20T15:08:08.972Z,9.60
2019-02-20T15:10:36.122Z,9.20
2019-02-20T15:13:03.272Z,9.20
2019-02-20T15:15:30.424Z,10.20
2019-02-20T15:17:58.189Z,10.10
2019-02-20T15:20:25.647Z,8.30
2019-02-20T15:22:52.799Z,8.50
2019-02-20T15:25:21.176Z,8.70
2019-02-20T15:27:48.329Z,8.10
2019-02-20T15:30:15.833Z,7.75
2019-02-20T15:32:42.950Z,8.47
2019-02-20T15:35:10.085Z,7.50
2019-02-20T15:37:37.236Z,8.00
2019-02-20T15:40:05.924Z,9.60
2019-02-20T15:42:33.076Z,9.30
2019-02-20T15:45:00.398Z,8.00
2019-02-20T15:47:28.302Z,7.10
2019-02-20T15:49:55.470Z,6.50
2019-02-20T15:52:22.596Z,8.40
2019-02-20T15:54:50.362Z,6.50
2019-02-20T15:57:17.513Z,6.20
2019-02-20T15:59:44.663Z,6.10
2019-02-20T16:02:11.813Z,5.35
2019-02-20T16:04:38.963Z,4.45
2019-02-20T16:07:06.118Z,6.10
2019-02-20T16:09:33.266Z,5.23
2019-02-20T16:12:00.416Z,4.55
2019-02-20T16:14:27.877Z,5.30
2019-02-20T16:16:55.024Z,5.30
2019-02-20T16:19:22.186Z,6.00
2019-02-20T16:21:49.325Z,7.70
2019-02-20T16:24:16.476Z,6.60
2019-02-20T16:26:43.638Z,6.30
2019-02-20T16:29:10.781Z,5.40
2019-02-20T16:31:37.930Z,3.90
2019-02-20T16:34:05.385Z,3.55
2019-02-20T16:36:32.842Z,4.50
2019-02-20T16:38:59.938Z,3.00
2019-02-20T16:41:27.145Z,5.50
2019-02-20T16:43:54.296Z,5.50
2019-02-20T16:46:21.447Z,3.60
2019-02-20T16:48:48.597Z,4.70
2019-02-20T16:51:16.054Z,4.30
2019-02-20T16:53:43.511Z,4.10
2019-02-20T16:56:10.662Z,6.50
2019-02-20T16:58:37.815Z,5.90
2019-02-20T17:01:06.052Z,6.50
2019-02-20T17:03:33.342Z,6.00
2019-02-20T17:06:00.492Z,5.40
2019-02-20T17:08:27.950Z,5.75
2019-02-20T17:10:55.715Z,5.30
2019-02-20T17:13:22.866Z,5.05
2019-02-20T17:15:50.017Z,5.30
2019-02-20T17:18:17.781Z,4.30
2019-02-20T17:20:44.933Z,4.60
2019-02-20T17:23:12.003Z,5.90
2019-02-20T17:25:39.236Z,5.10
2019-02-20T17:28:06.383Z,4.95
2019-02-20T17:30:33.534Z,5.55
2019-02-20T17:33:00.686Z,4.95
2019-02-20T17:35:27.843Z,4.75
2019-02-20T17:37:54.988Z,5.25
2019-02-20T17:40:22.138Z,3.95
2019-02-20T17:42:49.293Z,4.10
2019-02-20T17:47:43.589Z,3.35
2019-02-20T17:52:37.891Z,5.90
2019-02-20T17:55:06.268Z,6.30
2019-02-20T17:57:33.432Z,6.80
2019-02-20T18:02:27.720Z,6.45
2019-02-20T18:04:54.889Z,6.30
2019-02-20T18:07:22.021Z,11.05
2019-02-20T18:12:16.322Z,12.20
2019-02-20T18:14:43.473Z,13.50
2019-02-20T18:17:10.931Z,16.50
2019-02-20T18:19:38.081Z,21.75
2019-02-20T18:22:05.233Z,16.00
2019-02-20T18:26:59.535Z,11.30
2019-02-20T18:29:26.684Z,12.35
2019-02-20T18:31:53.888Z,10.85
2019-02-20T18:34:21.006Z,10.60
2019-02-20T18:39:15.286Z,8.73
2019-02-20T18:41:42.447Z,8.30
2019-02-20T18:49:03.281Z,7.30
2019-02-20T18:58:51.587Z,8.50
2019-02-20T19:30:53.131Z,6.20
2019-02-20T19:33:28.274Z,6.10
2019-02-20T19:35:58.532Z,5.90
2019-02-20T19:40:54.941Z,6.20
2019-02-20T19:45:55.391Z,7.20
